sensor_id;sensor_type;location;lat;lon;timestamp;P1;durP1;ratioP1;P2;durP2;ratioP2
10432;SDS011;5263;48.680;9.004;2023-12-29T00:00:25;0.70;;;0.70;;
10432;SDS011;5263;48.680;9.004;2023-12-29T00:02:51;1.00;;;0.90;;
10432;SDS011;5263;48.680;9.004;2023-12-29T00:05:16;1.13;;;1.00;;
10432;SDS011;5263;48.680;9.004;2023-12-29T00:07:42;1.37;;;0.90;;
10432;SDS011;5263;48.680;9.004;2023-12-29T00:10:08;0.90;;;0.90;;
10432;SDS011;5263;48.680;9.004;2023-12-29T00:12:33;1.77;;;0.80;;
10432;SDS011;5263;48.680;9.004;2023-12-29T00:14:59;1.80;;;0.80;;
10432;SDS011;5263;48.680;9.004;2023-12-29T00:17:25;0.70;;;0.70;;
10432;SDS011;5263;48.680;9.004;2023-12-29T00:19:50;2.37;;;1.00;;
10432;SDS011;5263;48.680;9.004;2023-12-29T00:22:16;0.83;;;0.80;;
10432;SDS011;5263;48.680;9.004;2023-12-29T00:24:41;0.80;;;0.80;;
10432;SDS011;5263;48.680;9.004;2023-12-29T00:27:07;0.90;;;0.90;;
10432;SDS011;5263;48.680;9.004;2023-12-29T00:29:33;1.47;;;0.97;;
10432;SDS011;5263;48.680;9.004;2023-12-29T00:31:59;3.40;;;0.93;;
10432;SDS011;5263;48.680;9.004;2023-12-29T00:34:28;2.13;;;1.27;;
10432;SDS011;5263;48.680;9.004;2023-12-29T00:36:53;3.97;;;1.20;;
10432;SDS011;5263;48.680;9.004;2023-12-29T00:39:19;1.27;;;0.93;;
10432;SDS011;5263;48.680;9.004;2023-12-29T00:41:53;1.10;;;0.93;;
10432;SDS011;5263;48.680;9.004;2023-12-29T00:44:19;2.83;;;0.90;;
10432;SDS011;5263;48.680;9.004;2023-12-29T00:46:44;1.27;;;0.83;;
10432;SDS011;5263;48.680;9.004;2023-12-29T00:49:10;4.50;;;1.10;;
10432;SDS011;5263;48.680;9.004;2023-12-29T00:51:39;1.10;;;1.00;;
10432;SDS011;5263;48.680;9.004;2023-12-29T00:54:06;1.10;;;1.00;;
10432;SDS011;5263;48.680;9.004;2023-12-29T00:56:31;2.20;;;0.90;;
10432;SDS011;5263;48.680;9.004;2023-12-29T00:58:57;1.20;;;0.80;;
10432;SDS011;5263;48.680;9.004;2023-12-29T01:01:22;2.20;;;1.13;;
10432;SDS011;5263;48.680;9.004;2023-12-29T01:03:48;1.30;;;1.03;;
10432;SDS011;5263;48.680;9.004;2023-12-29T01:06:14;1.93;;;1.30;;
10432;SDS011;5263;48.680;9.004;2023-12-29T01:08:39;1.30;;;1.10;;
10432;SDS011;5263;48.680;9.004;2023-12-29T01:11:05;1.40;;;1.30;;
10432;SDS011;5263;48.680;9.004;2023-12-29T01:13:31;1.20;;;1.10;;
10432;SDS011;5263;48.680;9.004;2023-12-29T01:15:56;1.73;;;0.80;;
10432;SDS011;5263;48.680;9.004;2023-12-29T01:18:22;1.23;;;0.97;;
10432;SDS011;5263;48.680;9.004;2023-12-29T01:20:48;1.53;;;1.23;;
10432;SDS011;5263;48.680;9.004;2023-12-29T01:23:13;1.07;;;0.97;;
10432;SDS011;5263;48.680;9.004;2023-12-29T01:25:39;2.73;;;1.03;;
10432;SDS011;5263;48.680;9.004;2023-12-29T01:28:04;3.30;;;1.30;;
10432;SDS011;5263;48.680;9.004;2023-12-29T01:30:30;1.73;;;1.10;;
10432;SDS011;5263;48.680;9.004;2023-12-29T01:32:56;1.73;;;1.30;;
10432;SDS011;5263;48.680;9.004;2023-12-29T01:35:21;1.30;;;1.20;;
10432;SDS011;5263;48.680;9.004;2023-12-29T01:37:47;2.20;;;1.90;;
10432;SDS011;5263;48.680;9.004;2023-12-29T01:40:12;2.70;;;1.10;;
10432;SDS011;5263;48.680;9.004;2023-12-29T01:42:38;1.30;;;1.20;;
10432;SDS011;5263;48.680;9.004;2023-12-29T01:45:03;4.40;;;1.27;;
10432;SDS011;5263;48.680;9.004;2023-12-29T01:47:30;4.10;;;1.53;;
10432;SDS011;5263;48.680;9.004;2023-12-29T01:49:56;1.43;;;1.10;;
10432;SDS011;5263;48.680;9.004;2023-12-29T01:52:22;2.60;;;1.40;;
10432;SDS011;5263;48.680;9.004;2023-12-29T01:54:49;2.50;;;1.10;;
10432;SDS011;5263;48.680;9.004;2023-12-29T01:57:15;1.73;;;1.30;;
10432;SDS011;5263;48.680;9.004;2023-12-29T01:59:41;2.90;;;1.13;;
10432;SDS011;5263;48.680;9.004;2023-12-29T02:02:10;1.30;;;1.20;;
10432;SDS011;5263;48.680;9.004;2023-12-29T02:04:36;1.57;;;1.30;;
10432;SDS011;5263;48.680;9.004;2023-12-29T02:07:03;2.20;;;1.30;;
10432;SDS011;5263;48.680;9.004;2023-12-29T02:09:29;2.00;;;1.20;;
10432;SDS011;5263;48.680;9.004;2023-12-29T02:11:54;3.60;;;1.23;;
10432;SDS011;5263;48.680;9.004;2023-12-29T02:14:20;1.20;;;1.20;;
10432;SDS011;5263;48.680;9.004;2023-12-29T02:17:10;1.90;;;1.03;;
10432;SDS011;5263;48.680;9.004;2023-12-29T02:19:39;1.27;;;1.17;;
10432;SDS011;5263;48.680;9.004;2023-12-29T02:22:09;1.70;;;1.20;;
10432;SDS011;5263;48.680;9.004;2023-12-29T02:24:36;4.63;;;1.53;;
10432;SDS011;5263;48.680;9.004;2023-12-29T02:29:41;1.83;;;1.00;;
10432;SDS011;5263;48.680;9.004;2023-12-29T02:32:13;1.53;;;1.43;;
10432;SDS011;5263;48.680;9.004;2023-12-29T02:34:43;1.60;;;1.40;;
10432;SDS011;5263;48.680;9.004;2023-12-29T02:37:12;1.40;;;1.30;;
10432;SDS011;5263;48.680;9.004;2023-12-29T02:39:39;1.63;;;1.53;;
10432;SDS011;5263;48.680;9.004;2023-12-29T02:42:05;1.60;;;1.30;;
10432;SDS011;5263;48.680;9.004;2023-12-29T02:44:30;2.30;;;1.47;;
10432;SDS011;5263;48.680;9.004;2023-12-29T02:46:56;1.73;;;1.63;;
10432;SDS011;5263;48.680;9.004;2023-12-29T02:49:22;3.60;;;1.27;;
10432;SDS011;5263;48.680;9.004;2023-12-29T02:51:48;2.17;;;1.60;;
10432;SDS011;5263;48.680;9.004;2023-12-29T02:54:14;1.90;;;1.67;;
10432;SDS011;5263;48.680;9.004;2023-12-29T02:56:40;2.40;;;2.10;;
10432;SDS011;5263;48.680;9.004;2023-12-29T02:59:06;2.20;;;2.00;;
10432;SDS011;5263;48.680;9.004;2023-12-29T03:01:31;1.70;;;1.60;;
10432;SDS011;5263;48.680;9.004;2023-12-29T03:03:57;2.27;;;1.70;;
10432;SDS011;5263;48.680;9.004;2023-12-29T03:06:22;1.77;;;1.67;;
10432;SDS011;5263;48.680;9.004;2023-12-29T03:08:48;1.53;;;1.40;;
10432;SDS011;5263;48.680;9.004;2023-12-29T03:11:13;1.33;;;1.20;;
10432;SDS011;5263;48.680;9.004;2023-12-29T03:13:39;2.27;;;1.73;;
10432;SDS011;5263;48.680;9.004;2023-12-29T03:16:04;5.67;;;1.83;;
10432;SDS011;5263;48.680;9.004;2023-12-29T03:18:30;2.33;;;1.63;;
10432;SDS011;5263;48.680;9.004;2023-12-29T03:20:56;2.67;;;1.77;;
10432;SDS011;5263;48.680;9.004;2023-12-29T03:23:21;1.63;;;1.50;;
10432;SDS011;5263;48.680;9.004;2023-12-29T03:25:47;1.67;;;1.57;;
10432;SDS011;5263;48.680;9.004;2023-12-29T03:28:12;2.23;;;1.83;;
10432;SDS011;5263;48.680;9.004;2023-12-29T03:30:38;1.63;;;1.50;;
10432;SDS011;5263;48.680;9.004;2023-12-29T03:33:03;1.60;;;1.50;;
10432;SDS011;5263;48.680;9.004;2023-12-29T03:35:29;2.20;;;1.43;;
10432;SDS011;5263;48.680;9.004;2023-12-29T03:37:55;2.90;;;1.90;;
10432;SDS011;5263;48.680;9.004;2023-12-29T03:40:20;1.77;;;1.40;;
10432;SDS011;5263;48.680;9.004;2023-12-29T03:42:46;1.07;;;1.07;;
10432;SDS011;5263;48.680;9.004;2023-12-29T03:45:11;1.67;;;1.17;;
10432;SDS011;5263;48.680;9.004;2023-12-29T03:47:37;1.63;;;1.50;;
10432;SDS011;5263;48.680;9.004;2023-12-29T03:50:03;3.47;;;1.47;;
10432;SDS011;5263;48.680;9.004;2023-12-29T03:52:28;1.70;;;1.60;;
10432;SDS011;5263;48.680;9.004;2023-12-29T03:54:54;1.33;;;1.23;;
10432;SDS011;5263;48.680;9.004;2023-12-29T03:57:19;1.33;;;1.27;;
10432;SDS011;5263;48.680;9.004;2023-12-29T03:59:45;1.77;;;1.60;;
10432;SDS011;5263;48.680;9.004;2023-12-29T04:02:11;2.40;;;1.63;;
10432;SDS011;5263;48.680;9.004;2023-12-29T04:04:37;1.90;;;1.53;;
10432;SDS011;5263;48.680;9.004;2023-12-29T04:07:03;1.77;;;1.67;;
10432;SDS011;5263;48.680;9.004;2023-12-29T04:09:29;2.90;;;1.67;;
10432;SDS011;5263;48.680;9.004;2023-12-29T04:11:55;2.03;;;1.20;;
10432;SDS011;5263;48.680;9.004;2023-12-29T04:14:20;1.40;;;1.17;;
10432;SDS011;5263;48.680;9.004;2023-12-29T04:16:46;1.77;;;1.57;;
10432;SDS011;5263;48.680;9.004;2023-12-29T04:19:11;1.77;;;1.67;;
10432;SDS011;5263;48.680;9.004;2023-12-29T04:21:37;1.73;;;1.63;;
10432;SDS011;5263;48.680;9.004;2023-12-29T04:24:02;2.10;;;1.40;;
10432;SDS011;5263;48.680;9.004;2023-12-29T04:26:28;1.43;;;1.33;;
10432;SDS011;5263;48.680;9.004;2023-12-29T04:28:53;1.93;;;1.77;;
10432;SDS011;5263;48.680;9.004;2023-12-29T04:31:19;4.27;;;2.03;;
10432;SDS011;5263;48.680;9.004;2023-12-29T04:33:44;1.90;;;1.80;;
10432;SDS011;5263;48.680;9.004;2023-12-29T04:36:10;3.03;;;1.90;;
10432;SDS011;5263;48.680;9.004;2023-12-29T04:38:36;1.97;;;1.87;;
10432;SDS011;5263;48.680;9.004;2023-12-29T04:41:02;6.10;;;1.93;;
10432;SDS011;5263;48.680;9.004;2023-12-29T04:43:27;4.30;;;2.40;;
10432;SDS011;5263;48.680;9.004;2023-12-29T04:45:53;1.90;;;1.80;;
10432;SDS011;5263;48.680;9.004;2023-12-29T04:48:18;2.83;;;2.20;;
10432;SDS011;5263;48.680;9.004;2023-12-29T04:50:44;1.90;;;1.80;;
10432;SDS011;5263;48.680;9.004;2023-12-29T04:53:10;3.33;;;2.20;;
10432;SDS011;5263;48.680;9.004;2023-12-29T04:55:35;1.87;;;1.77;;
10432;SDS011;5263;48.680;9.004;2023-12-29T04:58:01;2.53;;;2.17;;
10432;SDS011;5263;48.680;9.004;2023-12-29T05:00:26;2.30;;;2.10;;
10432;SDS011;5263;48.680;9.004;2023-12-29T05:02:52;2.63;;;1.93;;
10432;SDS011;5263;48.680;9.004;2023-12-29T05:05:17;1.67;;;1.57;;
10432;SDS011;5263;48.680;9.004;2023-12-29T05:07:43;3.33;;;1.37;;
10432;SDS011;5263;48.680;9.004;2023-12-29T05:10:08;1.70;;;1.60;;
10432;SDS011;5263;48.680;9.004;2023-12-29T05:12:34;5.97;;;2.10;;
10432;SDS011;5263;48.680;9.004;2023-12-29T05:15:00;3.07;;;2.00;;
10432;SDS011;5263;48.680;9.004;2023-12-29T05:17:25;2.60;;;2.13;;
10432;SDS011;5263;48.680;9.004;2023-12-29T05:19:51;3.40;;;1.97;;
10432;SDS011;5263;48.680;9.004;2023-12-29T05:22:16;4.87;;;1.87;;
10432;SDS011;5263;48.680;9.004;2023-12-29T05:24:42;3.13;;;1.70;;
10432;SDS011;5263;48.680;9.004;2023-12-29T05:27:09;5.10;;;1.80;;
10432;SDS011;5263;48.680;9.004;2023-12-29T05:29:35;2.57;;;1.60;;
10432;SDS011;5263;48.680;9.004;2023-12-29T05:32:01;1.73;;;1.50;;
10432;SDS011;5263;48.680;9.004;2023-12-29T05:34:27;2.53;;;2.17;;
10432;SDS011;5263;48.680;9.004;2023-12-29T05:36:53;6.30;;;2.00;;
10432;SDS011;5263;48.680;9.004;2023-12-29T05:39:18;2.00;;;1.90;;
10432;SDS011;5263;48.680;9.004;2023-12-29T05:41:44;2.23;;;1.73;;
10432;SDS011;5263;48.680;9.004;2023-12-29T05:44:10;2.37;;;2.17;;
10432;SDS011;5263;48.680;9.004;2023-12-29T05:46:35;3.33;;;2.03;;
10432;SDS011;5263;48.680;9.004;2023-12-29T05:49:01;5.70;;;1.93;;
10432;SDS011;5263;48.680;9.004;2023-12-29T05:51:26;4.77;;;1.90;;
10432;SDS011;5263;48.680;9.004;2023-12-29T05:53:52;2.20;;;1.90;;
10432;SDS011;5263;48.680;9.004;2023-12-29T05:56:17;1.50;;;1.40;;
10432;SDS011;5263;48.680;9.004;2023-12-29T05:58:43;1.60;;;1.23;;
10432;SDS011;5263;48.680;9.004;2023-12-29T06:01:09;1.60;;;1.50;;
10432;SDS011;5263;48.680;9.004;2023-12-29T06:03:35;2.13;;;1.97;;
10432;SDS011;5263;48.680;9.004;2023-12-29T06:06:00;1.80;;;1.70;;
10432;SDS011;5263;48.680;9.004;2023-12-29T06:08:26;2.03;;;1.40;;
10432;SDS011;5263;48.680;9.004;2023-12-29T06:10:52;2.73;;;1.73;;
10432;SDS011;5263;48.680;9.004;2023-12-29T06:13:17;1.63;;;1.53;;
10432;SDS011;5263;48.680;9.004;2023-12-29T06:15:43;1.80;;;1.70;;
10432;SDS011;5263;48.680;9.004;2023-12-29T06:18:08;1.90;;;1.50;;
10432;SDS011;5263;48.680;9.004;2023-12-29T06:20:34;1.47;;;1.37;;
10432;SDS011;5263;48.680;9.004;2023-12-29T06:22:59;1.73;;;1.30;;
10432;SDS011;5263;48.680;9.004;2023-12-29T06:25:25;2.17;;;1.70;;
10432;SDS011;5263;48.680;9.004;2023-12-29T06:27:51;1.93;;;1.80;;
10432;SDS011;5263;48.680;9.004;2023-12-29T06:30:16;2.77;;;2.10;;
10432;SDS011;5263;48.680;9.004;2023-12-29T06:32:42;2.43;;;1.87;;
10432;SDS011;5263;48.680;9.004;2023-12-29T06:35:08;1.87;;;1.77;;
10432;SDS011;5263;48.680;9.004;2023-12-29T06:37:35;3.10;;;1.80;;
10432;SDS011;5263;48.680;9.004;2023-12-29T06:40:03;3.53;;;1.50;;
10432;SDS011;5263;48.680;9.004;2023-12-29T06:42:29;1.83;;;1.57;;
10432;SDS011;5263;48.680;9.004;2023-12-29T06:44:54;1.83;;;1.60;;
10432;SDS011;5263;48.680;9.004;2023-12-29T06:47:20;1.57;;;1.47;;
10432;SDS011;5263;48.680;9.004;2023-12-29T06:49:45;1.47;;;1.37;;
10432;SDS011;5263;48.680;9.004;2023-12-29T06:52:11;1.57;;;1.47;;
10432;SDS011;5263;48.680;9.004;2023-12-29T06:54:36;2.07;;;1.67;;
10432;SDS011;5263;48.680;9.004;2023-12-29T06:57:02;1.83;;;1.47;;
10432;SDS011;5263;48.680;9.004;2023-12-29T06:59:27;3.03;;;1.70;;
10432;SDS011;5263;48.680;9.004;2023-12-29T07:01:53;1.47;;;1.33;;
10432;SDS011;5263;48.680;9.004;2023-12-29T07:04:18;2.20;;;1.80;;
10432;SDS011;5263;48.680;9.004;2023-12-29T07:06:44;1.70;;;1.60;;
10432;SDS011;5263;48.680;9.004;2023-12-29T07:09:09;1.93;;;1.60;;
10432;SDS011;5263;48.680;9.004;2023-12-29T07:11:35;2.43;;;1.93;;
10432;SDS011;5263;48.680;9.004;2023-12-29T07:14:01;2.90;;;1.70;;
10432;SDS011;5263;48.680;9.004;2023-12-29T07:16:27;3.77;;;1.87;;
10432;SDS011;5263;48.680;9.004;2023-12-29T07:18:53;2.57;;;2.37;;
10432;SDS011;5263;48.680;9.004;2023-12-29T07:21:18;1.67;;;1.50;;
10432;SDS011;5263;48.680;9.004;2023-12-29T07:23:44;2.47;;;1.70;;
10432;SDS011;5263;48.680;9.004;2023-12-29T07:26:10;1.60;;;1.50;;
10432;SDS011;5263;48.680;9.004;2023-12-29T07:28:35;2.77;;;1.80;;
10432;SDS011;5263;48.680;9.004;2023-12-29T07:31:01;2.90;;;1.83;;
10432;SDS011;5263;48.680;9.004;2023-12-29T07:33:27;2.30;;;1.60;;
10432;SDS011;5263;48.680;9.004;2023-12-29T07:35:53;2.07;;;1.87;;
10432;SDS011;5263;48.680;9.004;2023-12-29T07:38:19;1.77;;;1.67;;
10432;SDS011;5263;48.680;9.004;2023-12-29T07:40:45;2.83;;;1.90;;
10432;SDS011;5263;48.680;9.004;2023-12-29T07:43:12;1.90;;;1.80;;
10432;SDS011;5263;48.680;9.004;2023-12-29T07:45:38;2.30;;;1.70;;
10432;SDS011;5263;48.680;9.004;2023-12-29T07:48:04;2.17;;;1.77;;
10432;SDS011;5263;48.680;9.004;2023-12-29T07:50:30;1.70;;;1.47;;
10432;SDS011;5263;48.680;9.004;2023-12-29T07:52:55;2.73;;;1.40;;
10432;SDS011;5263;48.680;9.004;2023-12-29T07:55:21;1.87;;;1.70;;
10432;SDS011;5263;48.680;9.004;2023-12-29T07:57:46;2.53;;;1.87;;
10432;SDS011;5263;48.680;9.004;2023-12-29T08:00:16;4.53;;;1.63;;
10432;SDS011;5263;48.680;9.004;2023-12-29T08:02:42;1.80;;;1.70;;
10432;SDS011;5263;48.680;9.004;2023-12-29T08:05:07;1.47;;;1.37;;
10432;SDS011;5263;48.680;9.004;2023-12-29T08:07:33;1.40;;;1.30;;
10432;SDS011;5263;48.680;9.004;2023-12-29T08:10:00;2.93;;;1.83;;
10432;SDS011;5263;48.680;9.004;2023-12-29T08:12:26;1.77;;;1.57;;
10432;SDS011;5263;48.680;9.004;2023-12-29T08:14:53;1.40;;;1.30;;
10432;SDS011;5263;48.680;9.004;2023-12-29T08:17:18;1.50;;;1.40;;
10432;SDS011;5263;48.680;9.004;2023-12-29T08:19:44;1.30;;;1.20;;
10432;SDS011;5263;48.680;9.004;2023-12-29T08:22:09;1.57;;;1.30;;
10432;SDS011;5263;48.680;9.004;2023-12-29T08:24:35;1.83;;;1.60;;
10432;SDS011;5263;48.680;9.004;2023-12-29T08:27:01;1.40;;;1.30;;
10432;SDS011;5263;48.680;9.004;2023-12-29T08:29:28;3.17;;;1.60;;
10432;SDS011;5263;48.680;9.004;2023-12-29T08:31:54;1.50;;;1.40;;
10432;SDS011;5263;48.680;9.004;2023-12-29T08:34:19;2.03;;;1.83;;
10432;SDS011;5263;48.680;9.004;2023-12-29T08:36:45;3.00;;;1.43;;
10432;SDS011;5263;48.680;9.004;2023-12-29T08:39:10;2.00;;;1.50;;
10432;SDS011;5263;48.680;9.004;2023-12-29T08:41:37;1.70;;;1.60;;
10432;SDS011;5263;48.680;9.004;2023-12-29T08:44:02;1.90;;;1.80;;
10432;SDS011;5263;48.680;9.004;2023-12-29T08:46:28;2.17;;;1.60;;
10432;SDS011;5263;48.680;9.004;2023-12-29T08:48:54;3.27;;;1.40;;
10432;SDS011;5263;48.680;9.004;2023-12-29T08:51:20;4.30;;;1.70;;
10432;SDS011;5263;48.680;9.004;2023-12-29T08:53:46;1.90;;;1.80;;
10432;SDS011;5263;48.680;9.004;2023-12-29T08:56:11;1.67;;;1.53;;
10432;SDS011;5263;48.680;9.004;2023-12-29T08:58:38;1.70;;;1.60;;
10432;SDS011;5263;48.680;9.004;2023-12-29T09:01:04;1.70;;;1.60;;
10432;SDS011;5263;48.680;9.004;2023-12-29T09:03:30;1.37;;;1.27;;
10432;SDS011;5263;48.680;9.004;2023-12-29T09:05:55;1.43;;;1.33;;
10432;SDS011;5263;48.680;9.004;2023-12-29T09:08:22;1.13;;;0.83;;
10432;SDS011;5263;48.680;9.004;2023-12-29T09:10:47;1.10;;;1.00;;
10432;SDS011;5263;48.680;9.004;2023-12-29T09:13:13;0.80;;;0.80;;
10432;SDS011;5263;48.680;9.004;2023-12-29T09:15:38;1.00;;;0.93;;
10432;SDS011;5263;48.680;9.004;2023-12-29T09:18:04;0.97;;;0.80;;
10432;SDS011;5263;48.680;9.004;2023-12-29T09:20:31;1.33;;;1.30;;
10432;SDS011;5263;48.680;9.004;2023-12-29T09:22:56;1.10;;;1.10;;
10432;SDS011;5263;48.680;9.004;2023-12-29T09:25:23;0.90;;;0.90;;
10432;SDS011;5263;48.680;9.004;2023-12-29T09:27:48;1.87;;;0.87;;
10432;SDS011;5263;48.680;9.004;2023-12-29T09:30:17;1.07;;;0.90;;
10432;SDS011;5263;48.680;9.004;2023-12-29T09:32:43;1.30;;;1.20;;
10432;SDS011;5263;48.680;9.004;2023-12-29T09:35:09;1.17;;;0.90;;
10432;SDS011;5263;48.680;9.004;2023-12-29T09:37:34;2.43;;;0.80;;
10432;SDS011;5263;48.680;9.004;2023-12-29T09:40:00;3.47;;;1.03;;
10432;SDS011;5263;48.680;9.004;2023-12-29T09:42:26;1.67;;;1.07;;
10432;SDS011;5263;48.680;9.004;2023-12-29T09:44:54;0.90;;;0.90;;
10432;SDS011;5263;48.680;9.004;2023-12-29T09:47:23;0.90;;;0.90;;
10432;SDS011;5263;48.680;9.004;2023-12-29T09:49:51;1.57;;;1.07;;
10432;SDS011;5263;48.680;9.004;2023-12-29T09:52:20;7.03;;;1.10;;
10432;SDS011;5263;48.680;9.004;2023-12-29T09:54:47;0.87;;;0.80;;
10432;SDS011;5263;48.680;9.004;2023-12-29T09:57:16;3.10;;;1.17;;
10432;SDS011;5263;48.680;9.004;2023-12-29T09:59:43;1.83;;;1.10;;
10432;SDS011;5263;48.680;9.004;2023-12-29T10:02:14;0.70;;;0.70;;
10432;SDS011;5263;48.680;9.004;2023-12-29T10:04:43;1.00;;;0.90;;
10432;SDS011;5263;48.680;9.004;2023-12-29T10:07:10;1.70;;;0.60;;
10432;SDS011;5263;48.680;9.004;2023-12-29T10:09:43;1.50;;;0.50;;
10432;SDS011;5263;48.680;9.004;2023-12-29T10:12:10;0.50;;;0.50;;
10432;SDS011;5263;48.680;9.004;2023-12-29T10:14:48;0.70;;;0.70;;
10432;SDS011;5263;48.680;9.004;2023-12-29T10:22:57;0.93;;;0.53;;
10432;SDS011;5263;48.680;9.004;2023-12-29T10:25:34;0.70;;;0.70;;
10432;SDS011;5263;48.680;9.004;2023-12-29T10:28:00;0.60;;;0.60;;
10432;SDS011;5263;48.680;9.004;2023-12-29T10:30:27;0.50;;;0.50;;
10432;SDS011;5263;48.680;9.004;2023-12-29T10:32:53;2.00;;;0.47;;
10432;SDS011;5263;48.680;9.004;2023-12-29T10:35:19;1.77;;;0.70;;
10432;SDS011;5263;48.680;9.004;2023-12-29T10:37:45;0.97;;;0.40;;
10432;SDS011;5263;48.680;9.004;2023-12-29T10:40:16;0.60;;;0.50;;
10432;SDS011;5263;48.680;9.004;2023-12-29T10:42:56;0.50;;;0.50;;
10432;SDS011;5263;48.680;9.004;2023-12-29T10:45:22;0.47;;;0.47;;
10432;SDS011;5263;48.680;9.004;2023-12-29T10:47:49;1.47;;;0.50;;
10432;SDS011;5263;48.680;9.004;2023-12-29T10:50:15;0.47;;;0.40;;
10432;SDS011;5263;48.680;9.004;2023-12-29T10:52:41;0.60;;;0.60;;
10432;SDS011;5263;48.680;9.004;2023-12-29T10:55:10;0.50;;;0.50;;
10432;SDS011;5263;48.680;9.004;2023-12-29T10:57:36;0.70;;;0.50;;
10432;SDS011;5263;48.680;9.004;2023-12-29T11:00:03;0.30;;;0.30;;
10432;SDS011;5263;48.680;9.004;2023-12-29T11:02:31;0.37;;;0.30;;
10432;SDS011;5263;48.680;9.004;2023-12-29T11:05:01;0.40;;;0.40;;
10432;SDS011;5263;48.680;9.004;2023-12-29T11:07:35;0.30;;;0.30;;
10432;SDS011;5263;48.680;9.004;2023-12-29T11:10:08;0.30;;;0.30;;
10432;SDS011;5263;48.680;9.004;2023-12-29T11:12:34;0.33;;;0.33;;
10432;SDS011;5263;48.680;9.004;2023-12-29T11:15:02;0.30;;;0.30;;
10432;SDS011;5263;48.680;9.004;2023-12-29T11:17:29;1.07;;;0.50;;
10432;SDS011;5263;48.680;9.004;2023-12-29T11:19:59;0.83;;;0.43;;
10432;SDS011;5263;48.680;9.004;2023-12-29T11:22:27;0.30;;;0.30;;
10432;SDS011;5263;48.680;9.004;2023-12-29T11:24:55;0.67;;;0.30;;
10432;SDS011;5263;48.680;9.004;2023-12-29T11:27:23;0.40;;;0.40;;
10432;SDS011;5263;48.680;9.004;2023-12-29T11:29:55;1.20;;;0.40;;
10432;SDS011;5263;48.680;9.004;2023-12-29T11:32:29;0.30;;;0.30;;
10432;SDS011;5263;48.680;9.004;2023-12-29T11:35:03;0.40;;;0.30;;
10432;SDS011;5263;48.680;9.004;2023-12-29T11:41:10;0.40;;;0.30;;
10432;SDS011;5263;48.680;9.004;2023-12-29T11:43:45;0.40;;;0.40;;
10432;SDS011;5263;48.680;9.004;2023-12-29T11:46:38;0.40;;;0.40;;
10432;SDS011;5263;48.680;9.004;2023-12-29T11:49:06;0.70;;;0.30;;
10432;SDS011;5263;48.680;9.004;2023-12-29T11:51:32;0.43;;;0.30;;
10432;SDS011;5263;48.680;9.004;2023-12-29T11:53:59;0.50;;;0.30;;
10432;SDS011;5263;48.680;9.004;2023-12-29T11:56:29;0.30;;;0.30;;
10432;SDS011;5263;48.680;9.004;2023-12-29T11:59:18;0.40;;;0.40;;
10432;SDS011;5263;48.680;9.004;2023-12-29T12:01:52;0.50;;;0.20;;
10432;SDS011;5263;48.680;9.004;2023-12-29T12:04:38;1.47;;;0.30;;
10432;SDS011;5263;48.680;9.004;2023-12-29T12:07:09;0.80;;;0.20;;
10432;SDS011;5263;48.680;9.004;2023-12-29T12:09:40;0.40;;;0.40;;
10432;SDS011;5263;48.680;9.004;2023-12-29T12:12:06;0.40;;;0.30;;
10432;SDS011;5263;48.680;9.004;2023-12-29T12:17:26;0.60;;;0.30;;
10432;SDS011;5263;48.680;9.004;2023-12-29T12:19:58;0.63;;;0.37;;
10432;SDS011;5263;48.680;9.004;2023-12-29T12:22:25;0.30;;;0.30;;
10432;SDS011;5263;48.680;9.004;2023-12-29T12:24:56;0.40;;;0.40;;
10432;SDS011;5263;48.680;9.004;2023-12-29T12:27:25;0.83;;;0.30;;
10432;SDS011;5263;48.680;9.004;2023-12-29T12:29:52;0.20;;;0.20;;
10432;SDS011;5263;48.680;9.004;2023-12-29T12:32:21;0.97;;;0.23;;
10432;SDS011;5263;48.680;9.004;2023-12-29T12:34:47;0.30;;;0.30;;
10432;SDS011;5263;48.680;9.004;2023-12-29T12:37:12;0.30;;;0.30;;
10432;SDS011;5263;48.680;9.004;2023-12-29T12:39:53;0.27;;;0.27;;
10432;SDS011;5263;48.680;9.004;2023-12-29T12:42:19;0.30;;;0.30;;
10432;SDS011;5263;48.680;9.004;2023-12-29T12:44:55;0.27;;;0.27;;
10432;SDS011;5263;48.680;9.004;2023-12-29T12:47:35;1.90;;;0.37;;
10432;SDS011;5263;48.680;9.004;2023-12-29T12:50:06;0.70;;;0.30;;
10432;SDS011;5263;48.680;9.004;2023-12-29T12:52:35;0.37;;;0.37;;
10432;SDS011;5263;48.680;9.004;2023-12-29T12:55:01;0.30;;;0.30;;
10432;SDS011;5263;48.680;9.004;2023-12-29T12:57:28;0.37;;;0.37;;
10432;SDS011;5263;48.680;9.004;2023-12-29T12:59:54;0.30;;;0.30;;
10432;SDS011;5263;48.680;9.004;2023-12-29T13:02:21;0.27;;;0.27;;
10432;SDS011;5263;48.680;9.004;2023-12-29T13:04:48;0.20;;;0.20;;
10432;SDS011;5263;48.680;9.004;2023-12-29T13:07:16;0.30;;;0.30;;
10432;SDS011;5263;48.680;9.004;2023-12-29T13:09:43;0.20;;;0.20;;
10432;SDS011;5263;48.680;9.004;2023-12-29T13:12:13;0.77;;;0.30;;
10432;SDS011;5263;48.680;9.004;2023-12-29T13:14:41;0.20;;;0.20;;
10432;SDS011;5263;48.680;9.004;2023-12-29T13:17:08;0.53;;;0.30;;
10432;SDS011;5263;48.680;9.004;2023-12-29T13:19:37;0.30;;;0.30;;
10432;SDS011;5263;48.680;9.004;2023-12-29T13:22:08;0.47;;;0.30;;
10432;SDS011;5263;48.680;9.004;2023-12-29T13:24:35;0.30;;;0.30;;
10432;SDS011;5263;48.680;9.004;2023-12-29T13:27:08;0.40;;;0.40;;
10432;SDS011;5263;48.680;9.004;2023-12-29T13:29:34;0.30;;;0.30;;
10432;SDS011;5263;48.680;9.004;2023-12-29T13:32:04;0.40;;;0.30;;
10432;SDS011;5263;48.680;9.004;2023-12-29T13:34:36;0.30;;;0.30;;
10432;SDS011;5263;48.680;9.004;2023-12-29T13:39:41;0.60;;;0.40;;
10432;SDS011;5263;48.680;9.004;2023-12-29T13:42:10;0.30;;;0.30;;
10432;SDS011;5263;48.680;9.004;2023-12-29T13:44:39;0.50;;;0.50;;
10432;SDS011;5263;48.680;9.004;2023-12-29T13:47:07;0.27;;;0.27;;
10432;SDS011;5263;48.680;9.004;2023-12-29T13:49:32;0.43;;;0.40;;
10432;SDS011;5263;48.680;9.004;2023-12-29T13:52:01;0.70;;;0.40;;
10432;SDS011;5263;48.680;9.004;2023-12-29T13:54:28;0.60;;;0.60;;
10432;SDS011;5263;48.680;9.004;2023-12-29T13:56:54;0.37;;;0.37;;
10432;SDS011;5263;48.680;9.004;2023-12-29T13:59:29;0.40;;;0.40;;
10432;SDS011;5263;48.680;9.004;2023-12-29T14:01:58;0.53;;;0.30;;
10432;SDS011;5263;48.680;9.004;2023-12-29T14:04:27;0.40;;;0.40;;
10432;SDS011;5263;48.680;9.004;2023-12-29T14:06:55;2.53;;;0.30;;
10432;SDS011;5263;48.680;9.004;2023-12-29T14:09:26;0.30;;;0.30;;
10432;SDS011;5263;48.680;9.004;2023-12-29T14:11:51;0.47;;;0.37;;
10432;SDS011;5263;48.680;9.004;2023-12-29T14:14:21;0.40;;;0.40;;
10432;SDS011;5263;48.680;9.004;2023-12-29T14:16:49;0.33;;;0.33;;
10432;SDS011;5263;48.680;9.004;2023-12-29T14:19:15;0.47;;;0.47;;
10432;SDS011;5263;48.680;9.004;2023-12-29T14:21:41;0.77;;;0.20;;
10432;SDS011;5263;48.680;9.004;2023-12-29T14:24:14;0.50;;;0.50;;
10432;SDS011;5263;48.680;9.004;2023-12-29T14:26:42;0.40;;;0.40;;
10432;SDS011;5263;48.680;9.004;2023-12-29T14:29:16;1.63;;;0.30;;
10432;SDS011;5263;48.680;9.004;2023-12-29T14:31:42;0.30;;;0.30;;
10432;SDS011;5263;48.680;9.004;2023-12-29T14:34:09;0.30;;;0.30;;
10432;SDS011;5263;48.680;9.004;2023-12-29T14:36:36;0.37;;;0.37;;
10432;SDS011;5263;48.680;9.004;2023-12-29T14:39:03;0.43;;;0.40;;
10432;SDS011;5263;48.680;9.004;2023-12-29T14:41:29;3.50;;;0.40;;
10432;SDS011;5263;48.680;9.004;2023-12-29T14:43:55;1.27;;;0.40;;
10432;SDS011;5263;48.680;9.004;2023-12-29T14:46:21;1.13;;;0.60;;
10432;SDS011;5263;48.680;9.004;2023-12-29T14:48:47;0.40;;;0.40;;
10432;SDS011;5263;48.680;9.004;2023-12-29T14:51:13;0.30;;;0.30;;
10432;SDS011;5263;48.680;9.004;2023-12-29T14:53:39;0.63;;;0.40;;
10432;SDS011;5263;48.680;9.004;2023-12-29T14:56:07;0.60;;;0.50;;
10432;SDS011;5263;48.680;9.004;2023-12-29T14:58:33;0.60;;;0.40;;
10432;SDS011;5263;48.680;9.004;2023-12-29T15:01:01;0.80;;;0.50;;
10432;SDS011;5263;48.680;9.004;2023-12-29T15:03:27;0.80;;;0.40;;
10432;SDS011;5263;48.680;9.004;2023-12-29T15:05:53;1.60;;;0.30;;
10432;SDS011;5263;48.680;9.004;2023-12-29T15:08:19;1.43;;;0.40;;
10432;SDS011;5263;48.680;9.004;2023-12-29T15:10:44;0.40;;;0.40;;
10432;SDS011;5263;48.680;9.004;2023-12-29T15:13:10;0.70;;;0.50;;
10432;SDS011;5263;48.680;9.004;2023-12-29T15:15:36;1.93;;;0.40;;